createdAt,value
2019-04-07T00:02:05.437Z,99.90
2019-04-07T00:04:35.057Z,99.90
2019-04-07T00:07:05.284Z,99.90
2019-04-07T00:09:35.578Z,99.90
2019-04-07T00:12:06.079Z,99.90
2019-04-07T00:14:36.071Z,99.90
2019-04-07T00:17:05.815Z,99.90
2019-04-07T00:19:35.443Z,99.90
2019-04-07T00:22:05.166Z,99.90
2019-04-07T00:24:35.217Z,99.90
2019-04-07T00:27:05.555Z,99.90
2019-04-07T00:29:35.517Z,99.90
2019-04-07T00:32:05.197Z,99.90
2019-04-07T00:34:34.881Z,99.90
2019-04-07T00:37:06.029Z,99.90
2019-04-07T00:39:36.185Z,99.90
2019-04-07T00:42:05.973Z,99.90
2019-04-07T00:44:35.600Z,99.90
2019-04-07T00:47:05.280Z,99.90
2019-04-07T00:49:34.916Z,99.90
2019-04-07T00:52:06.304Z,99.90
2019-04-07T00:54:36.001Z,99.90
2019-04-07T00:57:05.654Z,99.90
2019-04-07T00:59:35.290Z,99.90
2019-04-07T01:02:05.797Z,99.90
2019-04-07T01:04:35.519Z,99.90
2019-04-07T01:07:05.331Z,99.90
2019-04-07T01:09:35.288Z,99.90
2019-04-07T01:12:05.313Z,99.90
2019-04-07T01:14:34.954Z,99.90
2019-04-07T01:17:04.841Z,99.90
2019-04-07T01:19:35.350Z,99.90
2019-04-07T01:22:05.449Z,99.90
2019-04-07T01:24:35.261Z,99.90
2019-04-07T01:27:05.489Z,99.90
2019-04-07T01:29:35.415Z,99.90
2019-04-07T01:32:06.006Z,99.90
2019-04-07T01:34:36.154Z,99.90
2019-04-07T01:37:05.884Z,99.90
2019-04-07T01:39:35.590Z,99.90
2019-04-07T01:42:06.982Z,99.90
2019-04-07T01:44:44.555Z,99.90
2019-04-07T01:47:16.815Z,99.90
2019-04-07T01:49:51.182Z,99.90
2019-04-07T01:52:22.705Z,99.90
2019-04-07T01:54:53.970Z,99.90
2019-04-07T01:57:31.050Z,99.90
2019-04-07T02:00:03.040Z,99.90
2019-04-07T02:02:37.158Z,99.90
2019-04-07T02:05:27.727Z,99.90
2019-04-07T02:08:14.520Z,99.90
2019-04-07T02:10:51.839Z,99.90
2019-04-07T02:13:39.326Z,99.90
2019-04-07T02:16:26.984Z,99.90
2019-04-07T02:19:15.091Z,99.90
2019-04-07T02:21:49.398Z,99.90
2019-04-07T02:24:37.223Z,99.90
2019-04-07T02:27:26.897Z,99.90
2019-04-07T02:29:58.868Z,99.90
2019-04-07T02:32:35.787Z,99.90
2019-04-07T02:35:25.859Z,99.90
2019-04-07T02:37:57.270Z,99.90
2019-04-07T02:40:28.599Z,99.90
2019-04-07T02:43:15.873Z,99.90
2019-04-07T02:45:50.607Z,99.90
2019-04-07T02:48:39.593Z,99.90
2019-04-07T02:51:27.301Z,99.90
2019-04-07T02:53:59.373Z,99.90
2019-04-07T02:56:30.969Z,99.90
2019-04-07T02:59:02.238Z,99.90
2019-04-07T03:01:33.648Z,99.90
2019-04-07T03:04:07.681Z,99.90
2019-04-07T03:06:52.270Z,99.90
2019-04-07T03:09:24.115Z,99.90
2019-04-07T03:12:12.433Z,99.90
2019-04-07T03:14:43.715Z,99.90
2019-04-07T03:17:15.835Z,99.90
2019-04-07T03:19:56.282Z,99.90
2019-04-07T03:22:45.847Z,99.90
2019-04-07T03:25:17.674Z,99.90
2019-04-07T03:27:51.374Z,99.90
2019-04-07T03:30:25.142Z,99.90
2019-04-07T03:32:57.612Z,99.90
2019-04-07T03:35:38.446Z,99.90
2019-04-07T03:38:27.418Z,99.90
2019-04-07T03:41:01.991Z,99.90
2019-04-07T03:43:40.031Z,99.90
2019-04-07T03:46:12.119Z,99.90
2019-04-07T03:48:43.519Z,99.90
2019-04-07T03:51:17.401Z,99.90
2019-04-07T03:54:03.914Z,99.90
2019-04-07T03:56:35.814Z,99.90
2019-04-07T03:59:20.030Z,99.90
2019-04-07T04:02:00.718Z,99.90
2019-04-07T04:04:32.309Z,99.90
2019-04-07T04:07:21.415Z,99.90
2019-04-07T04:09:42.837Z,99.90
2019-04-07T04:12:26.317Z,99.90
2019-04-07T04:15:01.759Z,99.90
2019-04-07T04:17:32.613Z,99.90
2019-04-07T04:20:02.715Z,99.90
2019-04-07T04:22:32.491Z,99.90
2019-04-07T04:25:02.915Z,99.90
2019-04-07T04:27:33.331Z,99.90
2019-04-07T04:30:03.269Z,99.90
2019-04-07T04:32:32.985Z,99.90
2019-04-07T04:35:03.227Z,99.90
2019-04-07T04:37:41.918Z,99.90
2019-04-07T04:40:07.166Z,99.90
2019-04-07T04:42:37.582Z,99.90
2019-04-07T04:45:08.398Z,99.90
2019-04-07T04:47:39.249Z,99.90
2019-04-07T04:50:09.952Z,99.90
2019-04-07T04:52:40.559Z,99.90
2019-04-07T04:55:11.320Z,99.90
2019-04-07T04:57:41.086Z,99.90
2019-04-07T05:00:10.895Z,99.90
2019-04-07T05:02:41.138Z,99.90
2019-04-07T05:05:11.053Z,99.90
2019-04-07T05:07:53.838Z,99.90
2019-04-07T05:10:12.316Z,99.90
2019-04-07T05:12:42.041Z,99.90
2019-04-07T05:15:12.058Z,99.90
2019-04-07T05:17:42.078Z,99.90
2019-04-07T05:20:12.388Z,99.90
2019-04-07T05:22:42.235Z,99.90
2019-04-07T05:25:12.115Z,99.90
2019-04-07T05:27:41.760Z,99.90
2019-04-07T05:30:11.523Z,99.90
2019-04-07T05:32:41.747Z,99.90
2019-04-07T05:35:13.187Z,99.90
2019-04-07T05:37:43.351Z,99.90
2019-04-07T05:40:13.312Z,99.90
2019-04-07T05:42:43.545Z,99.90
2019-04-07T05:45:13.520Z,99.90
2019-04-07T05:47:47.328Z,99.90
2019-04-07T05:53:13.461Z,99.90
2019-04-07T05:55:41.226Z,99.90
2019-04-07T05:58:11.635Z,99.90
2019-04-07T06:00:45.882Z,99.90
2019-04-07T06:03:13.426Z,99.90
2019-04-07T06:05:44.625Z,99.90
2019-04-07T06:08:25.970Z,99.90
2019-04-07T06:10:45.903Z,99.90
2019-04-07T06:13:15.788Z,99.90
2019-04-07T06:15:45.742Z,99.90
2019-04-07T06:18:15.497Z,99.90
2019-04-07T06:20:45.787Z,99.90
2019-04-07T06:23:16.989Z,99.90
2019-04-07T06:25:47.353Z,99.90
2019-04-07T06:28:19.013Z,99.90
2019-04-07T06:30:48.382Z,99.90
2019-04-07T06:33:18.101Z,99.90
2019-04-07T06:35:47.933Z,99.90
2019-04-07T06:38:17.785Z,99.90
2019-04-07T06:40:47.977Z,99.90
2019-04-07T06:43:18.636Z,99.90
2019-04-07T06:45:54.926Z,99.90
2019-04-07T06:48:24.438Z,99.90
2019-04-07T06:51:02.820Z,99.90
2019-04-07T06:53:51.436Z,99.90
2019-04-07T06:56:23.200Z,99.90
2019-04-07T06:59:13.832Z,99.90
2019-04-07T07:01:48.189Z,99.90
2019-04-07T07:04:32.268Z,99.90
2019-04-07T07:07:13.037Z,99.90
2019-04-07T07:09:44.414Z,99.90
2019-04-07T07:12:35.663Z,99.90
2019-04-07T07:15:02.550Z,99.90
2019-04-07T07:17:50.697Z,99.90
2019-04-07T07:20:27.599Z,99.90
2019-04-07T07:23:00.112Z,99.90
2019-04-07T07:25:30.426Z,99.90
2019-04-07T07:28:00.061Z,99.90
2019-04-07T07:30:29.988Z,99.90
2019-04-07T07:32:59.712Z,99.90
2019-04-07T07:35:29.717Z,99.90
2019-04-07T07:37:59.769Z,99.90
2019-04-07T07:40:29.906Z,99.90
2019-04-07T07:42:59.608Z,99.90
2019-04-07T07:45:29.237Z,99.90
2019-04-07T07:47:58.891Z,99.90
2019-04-07T07:50:28.529Z,99.90
2019-04-07T07:52:58.286Z,99.90
2019-04-07T07:55:47.668Z,99.90
2019-04-07T07:58:17.317Z,99.90
2019-04-07T08:00:47.572Z,99.90
2019-04-07T08:03:20.867Z,99.90
2019-04-07T08:05:48.726Z,99.90
2019-04-07T08:08:18.784Z,99.90
2019-04-07T08:10:48.542Z,99.90
2019-04-07T08:13:18.995Z,99.90
2019-04-07T08:15:49.337Z,99.90
2019-04-07T08:18:20.719Z,99.90
2019-04-07T08:20:51.184Z,99.90
2019-04-07T08:23:21.033Z,99.90
2019-04-07T08:25:52.935Z,99.90
2019-04-07T08:28:22.105Z,99.90
2019-04-07T08:30:51.737Z,99.90
2019-04-07T08:33:21.393Z,99.90
2019-04-07T08:35:51.492Z,99.90
2019-04-07T08:38:25.597Z,99.90
2019-04-07T08:40:54.963Z,99.90
2019-04-07T08:43:24.993Z,99.90
2019-04-07T08:45:55.292Z,99.90
2019-04-07T08:48:25.622Z,99.90
2019-04-07T08:50:57.249Z,99.90
2019-04-07T08:53:26.609Z,99.90
2019-04-07T08:55:56.968Z,99.90
2019-04-07T08:58:29.677Z,99.90
2019-04-07T09:00:58.534Z,99.90
2019-04-07T09:03:28.293Z,99.90
2019-04-07T09:05:58.523Z,99.90
2019-04-07T09:08:28.276Z,99.90
2019-04-07T09:10:59.542Z,99.90
2019-04-07T09:13:31.651Z,99.90
2019-04-07T09:16:02.486Z,99.90
2019-04-07T09:18:33.797Z,99.90
2019-04-07T09:21:33.652Z,99.90
2019-04-07T09:24:11.442Z,99.90
2019-04-07T09:27:01.120Z,99.90
2019-04-07T09:29:49.123Z,99.90
2019-04-07T09:32:23.733Z,99.90
2019-04-07T09:35:11.326Z,99.90
2019-04-07T09:37:43.309Z,99.90
2019-04-07T09:40:21.467Z,99.90
2019-04-07T09:43:09.844Z,99.90
2019-04-07T09:45:58.356Z,99.90
2019-04-07T09:48:33.404Z,97.80
2019-04-07T09:51:21.858Z,97.70
2019-04-07T09:53:53.377Z,97.50
2019-04-07T09:56:31.422Z,94.40
2019-04-07T09:59:03.524Z,93.00
2019-04-07T10:01:47.404Z,93.70
2019-04-07T10:04:31.094Z,92.40
2019-04-07T10:07:16.166Z,94.50
2019-04-07T10:09:47.352Z,95.10
2019-04-07T10:12:34.760Z,95.50
2019-04-07T10:15:08.400Z,94.60
2019-04-07T10:17:43.655Z,96.60
2019-04-07T10:20:15.518Z,93.90
2019-04-07T10:22:49.432Z,93.60
2019-04-07T10:25:21.103Z,93.80
2019-04-07T10:28:11.042Z,91.80
2019-04-07T10:30:48.400Z,93.60
2019-04-07T10:33:25.972Z,91.80
2019-04-07T10:36:12.265Z,91.90
2019-04-07T10:38:52.686Z,92.20
2019-04-07T10:41:40.348Z,91.80
2019-04-07T10:44:23.854Z,92.30
2019-04-07T10:47:01.551Z,90.80
2019-04-07T10:49:33.042Z,86.50
2019-04-07T10:52:07.249Z,89.30
2019-04-07T10:54:39.172Z,92.30
2019-04-07T10:57:13.370Z,91.20
2019-04-07T10:59:45.297Z,89.20
2019-04-07T11:02:16.962Z,91.10
2019-04-07T11:04:48.438Z,93.00
2019-04-07T11:07:26.639Z,92.20
2019-04-07T11:09:58.906Z,97.80
2019-04-07T11:12:30.467Z,92.80
2019-04-07T11:15:10.726Z,92.10
2019-04-07T11:17:51.543Z,87.40
2019-04-07T11:20:34.832Z,88.80
2019-04-07T11:23:06.234Z,87.20
2019-04-07T11:25:54.769Z,91.40
2019-04-07T11:28:31.937Z,90.30
2019-04-07T11:31:03.864Z,81.20
2019-04-07T11:33:38.071Z,80.40
2019-04-07T11:36:09.683Z,78.20
2019-04-07T11:38:50.546Z,80.40
2019-04-07T11:41:39.175Z,83.10
2019-04-07T11:44:13.846Z,81.60
2019-04-07T11:46:54.221Z,82.20
2019-04-07T11:49:25.843Z,84.60
2019-04-07T11:52:16.451Z,83.40
2019-04-07T11:54:47.963Z,84.80
2019-04-07T11:57:20.352Z,81.00
2019-04-07T11:59:57.598Z,85.20
2019-04-07T12:02:34.816Z,83.80
2019-04-07T12:05:17.598Z,90.10
2019-04-07T12:08:06.091Z,89.70
2019-04-07T12:10:37.778Z,87.80
2019-04-07T12:13:27.331Z,87.20
2019-04-07T12:15:59.362Z,89.20
2019-04-07T12:18:51.361Z,88.00
2019-04-07T12:21:26.743Z,85.90
2019-04-07T12:24:01.617Z,89.70
2019-04-07T12:26:48.774Z,90.20
2019-04-07T12:29:20.078Z,89.80
2019-04-07T12:31:52.093Z,90.50
2019-04-07T12:34:23.552Z,90.80
2019-04-07T12:37:07.896Z,91.20
2019-04-07T12:39:39.284Z,90.00
2019-04-07T12:42:11.319Z,90.60
2019-04-07T12:44:58.245Z,92.10
2019-04-07T12:47:30.065Z,87.40
2019-04-07T12:50:04.361Z,87.00
2019-04-07T12:53:05.924Z,85.60
2019-04-07T12:55:56.947Z,84.90
2019-04-07T12:58:43.998Z,90.70
2019-04-07T13:01:19.249Z,90.90
2019-04-07T13:03:51.218Z,81.50
2019-04-07T13:06:42.230Z,78.90
2019-04-07T13:09:17.859Z,78.60
2019-04-07T13:11:54.837Z,80.30
2019-04-07T13:14:41.545Z,74.50
2019-04-07T13:17:34.192Z,77.20
2019-04-07T13:20:17.982Z,80.80
2019-04-07T13:22:57.028Z,71.10
2019-04-07T13:25:32.330Z,70.80
2019-04-07T13:28:15.182Z,67.90
2019-04-07T13:30:53.037Z,73.10
2019-04-07T13:33:37.155Z,71.70
2019-04-07T13:36:26.769Z,69.50
2019-04-07T13:38:58.845Z,68.20
2019-04-07T13:41:38.605Z,66.10
2019-04-07T13:44:07.652Z,69.10
2019-04-07T13:46:42.197Z,66.00
2019-04-07T13:49:32.191Z,69.40
2019-04-07T13:52:09.621Z,71.90
2019-04-07T13:54:52.717Z,79.50
2019-04-07T13:57:42.853Z,73.40
2019-04-07T14:00:31.696Z,71.80
2019-04-07T14:03:03.015Z,69.30
2019-04-07T14:05:39.352Z,70.70
2019-04-07T14:08:26.348Z,75.10
2019-04-07T14:11:14.406Z,73.40
2019-04-07T14:14:01.310Z,74.20
2019-04-07T14:16:33.409Z,77.00
2019-04-07T14:19:11.306Z,78.10
2019-04-07T14:21:55.687Z,78.50
2019-04-07T14:24:33.121Z,81.20
2019-04-07T14:27:19.691Z,82.70
2019-04-07T14:30:07.832Z,82.50
2019-04-07T14:32:45.332Z,78.30
2019-04-07T14:35:16.585Z,77.30
2019-04-07T14:37:51.263Z,76.40
2019-04-07T14:40:25.185Z,80.00
2019-04-07T14:42:55.562Z,79.20
2019-04-07T14:45:27.394Z,83.00
2019-04-07T14:48:16.151Z,85.20
2019-04-07T14:50:50.833Z,84.90
2019-04-07T14:53:22.203Z,86.60
2019-04-07T14:55:53.568Z,89.30
2019-04-07T14:58:39.968Z,90.30
2019-04-07T15:01:14.190Z,90.80
2019-04-07T15:03:44.637Z,92.20
2019-04-07T15:06:15.334Z,91.60
2019-04-07T15:08:47.476Z,91.90
2019-04-07T15:11:23.757Z,92.40
2019-04-07T15:13:56.977Z,93.30
2019-04-07T15:16:26.360Z,93.60
2019-04-07T15:18:56.683Z,93.30
2019-04-07T15:21:27.349Z,90.90
2019-04-07T15:23:57.296Z,92.10
2019-04-07T15:26:28.203Z,92.60
2019-04-07T15:28:59.050Z,90.90
2019-04-07T15:31:29.095Z,91.30
2019-04-07T15:34:00.749Z,92.20
2019-04-07T15:36:30.073Z,92.50
2019-04-07T15:38:59.754Z,92.60
2019-04-07T15:41:29.552Z,97.70
2019-04-07T15:43:59.283Z,93.60
2019-04-07T15:46:29.820Z,94.40
2019-04-07T15:48:59.494Z,95.30
2019-04-07T15:51:29.478Z,94.70
2019-04-07T15:53:59.438Z,95.60
2019-04-07T15:56:29.191Z,94.70
2019-04-07T15:59:00.744Z,95.10
2019-04-07T16:01:30.041Z,95.90
2019-04-07T16:03:59.752Z,95.80
2019-04-07T16:06:30.068Z,96.90
2019-04-07T16:09:01.079Z,96.60
2019-04-07T16:11:31.485Z,96.50
2019-04-07T16:14:01.645Z,97.20
2019-04-07T16:16:31.838Z,96.40
2019-04-07T16:19:01.528Z,97.30
2019-04-07T16:21:31.198Z,98.00
2019-04-07T16:24:00.993Z,99.90
2019-04-07T16:26:32.483Z,99.00
2019-04-07T16:29:02.833Z,99.90
2019-04-07T16:31:33.263Z,99.00
2019-04-07T16:34:05.656Z,97.40
2019-04-07T16:36:35.094Z,97.40
2019-04-07T16:39:09.312Z,96.90
2019-04-07T16:41:40.159Z,98.20
2019-04-07T16:44:10.687Z,99.30
2019-04-07T16:46:41.358Z,98.80
2019-04-07T16:49:13.365Z,98.80
2019-04-07T16:51:42.750Z,97.20
2019-04-07T16:54:13.239Z,97.50
2019-04-07T16:56:44.047Z,98.10
2019-04-07T16:59:13.868Z,96.70
2019-04-07T17:01:43.576Z,98.10
2019-04-07T17:04:13.463Z,98.80
2019-04-07T17:06:43.199Z,99.40
2019-04-07T17:09:16.510Z,99.20
2019-04-07T17:11:46.564Z,99.90
2019-04-07T17:14:16.409Z,99.90
2019-04-07T17:16:46.078Z,99.90
2019-04-07T17:19:16.268Z,99.90
2019-04-07T17:21:46.871Z,99.90
2019-04-07T17:24:17.396Z,99.90
2019-04-07T17:26:47.173Z,99.90
2019-04-07T17:29:19.100Z,99.90
2019-04-07T17:31:48.737Z,99.90
2019-04-07T17:34:18.562Z,99.90
2019-04-07T17:36:52.120Z,99.90
2019-04-07T17:39:24.725Z,99.90
2019-04-07T17:41:56.142Z,99.90
2019-04-07T17:44:36.381Z,99.90
2019-04-07T17:47:13.714Z,99.90
2019-04-07T17:49:56.631Z,99.90
2019-04-07T17:52:27.176Z,99.90
2019-04-07T17:55:17.563Z,99.90
2019-04-07T17:58:07.891Z,99.90
2019-04-07T18:00:50.616Z,99.90
2019-04-07T18:03:41.254Z,99.90
2019-04-07T18:06:16.067Z,99.90
2019-04-07T18:09:09.990Z,99.90
2019-04-07T18:12:00.917Z,99.90
2019-04-07T18:14:33.326Z,99.90
2019-04-07T18:17:08.553Z,99.90
2019-04-07T18:19:39.946Z,99.90
2019-04-07T18:22:22.154Z,99.90
2019-04-07T18:24:59.612Z,99.90
2019-04-07T18:27:29.512Z,99.90
2019-04-07T18:30:01.758Z,99.90
2019-04-07T18:32:34.087Z,99.90
2019-04-07T18:35:23.762Z,99.90
2019-04-07T18:38:13.373Z,99.90
2019-04-07T18:40:47.199Z,99.90
2019-04-07T18:43:35.619Z,99.90
2019-04-07T18:46:23.664Z,99.90
2019-04-07T18:49:01.786Z,99.90
2019-04-07T18:51:48.397Z,99.90
2019-04-07T18:54:34.312Z,99.90
2019-04-07T18:57:10.847Z,99.90
2019-04-07T18:59:44.391Z,99.90
2019-04-07T19:02:24.838Z,99.90
2019-04-07T19:05:13.215Z,99.90
2019-04-07T19:07:47.188Z,99.90
2019-04-07T19:10:29.148Z,99.90
2019-04-07T19:13:05.674Z,99.90
2019-04-07T19:15:36.482Z,99.90
2019-04-07T19:18:06.703Z,99.90
2019-04-07T19:20:53.554Z,99.90
2019-04-07T19:23:27.992Z,99.90
2019-04-07T19:26:18.083Z,99.90
2019-04-07T19:28:49.834Z,99.90
2019-04-07T19:31:23.987Z,99.90
2019-04-07T19:34:02.326Z,99.90
2019-04-07T19:36:34.848Z,99.90
2019-04-07T19:39:09.322Z,99.90
2019-04-07T19:41:43.281Z,99.90
2019-04-07T19:44:33.935Z,99.90
2019-04-07T19:46:59.672Z,99.90
2019-04-07T19:49:45.328Z,99.90
2019-04-07T19:52:27.512Z,99.90
2019-04-07T19:55:14.719Z,99.90
2019-04-07T19:57:48.728Z,99.90
2019-04-07T20:00:27.654Z,99.90
2019-04-07T20:03:15.749Z,99.90
2019-04-07T20:06:02.795Z,99.90
2019-04-07T20:08:46.165Z,99.90
2019-04-07T20:11:35.788Z,99.90
2019-04-07T20:14:14.393Z,99.90
2019-04-07T20:16:57.837Z,99.90
2019-04-07T20:19:47.547Z,99.90
2019-04-07T20:22:35.105Z,99.90
2019-04-07T20:25:24.616Z,99.90
2019-04-07T20:28:11.929Z,99.90
2019-04-07T20:30:45.572Z,99.90
2019-04-07T20:33:19.105Z,99.90
2019-04-07T20:36:02.482Z,99.90
2019-04-07T20:38:46.475Z,99.90
2019-04-07T20:41:17.954Z,99.90
2019-04-07T20:43:53.842Z,99.90
2019-04-07T20:46:31.589Z,99.90
2019-04-07T20:49:05.314Z,99.90
2019-04-07T20:51:38.641Z,99.90
2019-04-07T20:54:25.955Z,99.90
2019-04-07T20:56:57.547Z,99.90
2019-04-07T20:59:31.735Z,99.90
2019-04-07T21:02:20.812Z,99.90
2019-04-07T21:04:53.114Z,99.90
2019-04-07T21:07:24.854Z,99.90
2019-04-07T21:10:07.599Z,99.90
2019-04-07T21:12:37.818Z,99.90
2019-04-07T21:15:21.105Z,99.90
2019-04-07T21:17:44.998Z,99.90
2019-04-07T21:20:16.542Z,99.90
2019-04-07T21:23:00.654Z,99.90
2019-04-07T21:25:41.393Z,99.90
2019-04-07T21:28:12.923Z,99.90
2019-04-07T21:30:53.643Z,99.90
2019-04-07T21:33:25.958Z,99.90
2019-04-07T21:36:14.253Z,99.90
2019-04-07T21:38:58.285Z,99.90
2019-04-07T21:41:46.133Z,99.90
2019-04-07T21:44:33.687Z,99.90
2019-04-07T21:47:14.148Z,99.90
2019-04-07T21:50:05.316Z,99.90
2019-04-07T21:52:35.642Z,99.90
2019-04-07T21:55:11.517Z,99.90
2019-04-07T21:57:50.759Z,99.90
2019-04-07T22:00:17.655Z,99.90
2019-04-07T22:02:51.973Z,99.90
2019-04-07T22:05:39.500Z,99.90
2019-04-07T22:08:15.641Z,99.90
2019-04-07T22:10:42.782Z,99.90
2019-04-07T22:13:12.566Z,99.90
2019-04-07T22:15:49.533Z,99.90
2019-04-07T22:18:14.969Z,99.90
2019-04-07T22:20:45.357Z,99.90
2019-04-07T22:23:15.022Z,99.90
2019-04-07T22:25:50.837Z,99.90
2019-04-07T22:28:20.866Z,99.90
2019-04-07T22:30:52.808Z,99.90
2019-04-07T22:33:25.221Z,99.90
2019-04-07T22:35:53.777Z,99.90
2019-04-07T22:38:23.918Z,99.90
2019-04-07T22:40:54.333Z,99.90
2019-04-07T22:43:24.874Z,99.90
2019-04-07T22:46:07.235Z,99.90
2019-04-07T22:48:27.874Z,99.90
2019-04-07T22:50:57.514Z,99.90
2019-04-07T22:53:39.587Z,99.90
2019-04-07T22:56:09.230Z,99.90
2019-04-07T22:58:38.851Z,99.90
2019-04-07T23:01:09.022Z,99.90
2019-04-07T23:03:39.103Z,99.90
2019-04-07T23:06:09.408Z,99.90
2019-04-07T23:08:39.131Z,99.90
2019-04-07T23:11:08.841Z,99.90
2019-04-07T23:13:38.517Z,99.90
2019-04-07T23:16:13.506Z,99.90
2019-04-07T23:18:40.215Z,99.90
2019-04-07T23:21:09.866Z,99.90
2019-04-07T23:23:39.864Z,99.90
2019-04-07T23:26:09.570Z,99.90
2019-04-07T23:28:40.185Z,99.90
2019-04-07T23:31:10.061Z,99.90
2019-04-07T23:33:39.713Z,99.90
2019-04-07T23:36:09.488Z,99.90
2019-04-07T23:38:39.193Z,99.90
2019-04-07T23:41:09.630Z,99.90
2019-04-07T23:43:39.712Z,99.90
2019-04-07T23:46:19.888Z,99.90
2019-04-07T23:48:40.708Z,99.90
2019-04-07T23:51:10.338Z,99.90
2019-04-07T23:54:11.400Z,99.90
2019-04-07T23:56:43.670Z,99.90
2019-04-07T23:59:14.654Z,99.90
